createdAt,value
2022-09-15T00:00:58.986Z,16.21
2022-09-15T00:02:06.266Z,16.21
2022-09-15T00:03:02.517Z,16.21
2022-09-15T00:04:04.174Z,16.21
2022-09-15T00:05:05.949Z,16.21
2022-09-15T00:06:07.650Z,16.21
2022-09-15T00:07:09.363Z,16.21
2022-09-15T00:08:11.106Z,16.21
2022-09-15T00:09:12.873Z,16.2
2022-09-15T00:10:21.623Z,16.2
2022-09-15T00:11:16.308Z,16.19
2022-09-15T00:12:18.030Z,16.2
2022-09-15T00:13:19.770Z,16.2
2022-09-15T00:14:21.511Z,16.21
2022-09-15T00:15:23.235Z,16.2
2022-09-15T00:16:25.010Z,16.2
2022-09-15T00:17:26.711Z,16.2
2022-09-15T00:18:28.442Z,16.2
2022-09-15T00:19:30.209Z,16.2
2022-09-15T00:20:31.912Z,16.21
2022-09-15T00:21:33.643Z,16.2
2022-09-15T00:22:35.377Z,16.21
2022-09-15T00:23:37.113Z,16.21
2022-09-15T00:24:38.819Z,16.21
2022-09-15T00:25:40.563Z,16.21
2022-09-15T00:26:42.301Z,16.21
2022-09-15T00:27:54.531Z,16.21
2022-09-15T00:28:45.796Z,16.21
2022-09-15T00:29:47.504Z,16.21
2022-09-15T00:30:49.326Z,16.21
2022-09-15T00:31:50.976Z,16.22
2022-09-15T00:32:52.711Z,16.22
2022-09-15T00:33:54.433Z,16.22
2022-09-15T00:34:57.247Z,16.22
2022-09-15T00:35:57.904Z,16.22
2022-09-15T00:36:59.638Z,16.22
2022-09-15T00:38:01.384Z,16.22
2022-09-15T00:39:03.118Z,16.22
2022-09-15T00:40:04.895Z,16.22
2022-09-15T00:41:06.584Z,16.22
2022-09-15T00:42:08.324Z,16.21
2022-09-15T00:43:10.044Z,16.22
2022-09-15T00:44:11.799Z,16.22
2022-09-15T00:45:13.527Z,16.22
2022-09-15T00:46:15.334Z,16.22
2022-09-15T00:47:19.750Z,16.22
2022-09-15T00:48:18.704Z,16.21
2022-09-15T00:49:20.485Z,16.22
2022-09-15T00:50:42.747Z,16.22
2022-09-15T00:51:44.497Z,16.21
2022-09-15T00:52:47.222Z,16.21
2022-09-15T00:53:47.969Z,16.21
2022-09-15T00:54:49.704Z,16.2
2022-09-15T00:55:51.449Z,16.2
2022-09-15T00:56:53.157Z,16.19
2022-09-15T00:57:54.904Z,16.2
2022-09-15T00:58:56.671Z,16.2
2022-09-15T00:59:58.481Z,16.2
2022-09-15T01:01:00.194Z,16.19
2022-09-15T01:02:01.866Z,16.2
2022-09-15T01:03:03.772Z,16.2
2022-09-15T01:04:05.318Z,16.21
2022-09-15T01:05:07.021Z,16.2
2022-09-15T01:06:08.771Z,16.2
2022-09-15T01:07:10.501Z,16.2
2022-09-15T01:08:12.249Z,16.21
2022-09-15T01:09:13.979Z,16.21
2022-09-15T01:10:15.721Z,16.21
2022-09-15T01:11:17.434Z,16.2
2022-09-15T01:12:19.150Z,16.2
2022-09-15T01:13:20.905Z,16.2
2022-09-15T01:14:22.627Z,16.2
2022-09-15T01:15:24.356Z,16.2
2022-09-15T01:16:26.200Z,16.2
2022-09-15T01:17:28.026Z,16.21
2022-09-15T01:18:29.580Z,16.2
2022-09-15T01:19:31.302Z,16.21
2022-09-15T01:20:33.029Z,16.2
2022-09-15T01:21:34.750Z,16.21
2022-09-15T01:22:36.498Z,16.2
2022-09-15T01:23:38.234Z,16.2
2022-09-15T01:24:39.952Z,16.21
2022-09-15T01:25:41.689Z,16.19
2022-09-15T01:26:43.417Z,16.19
2022-09-15T01:27:45.163Z,16.19
2022-09-15T01:28:46.990Z,16.19
2022-09-15T01:29:48.654Z,16.19
2022-09-15T01:30:50.351Z,16.18
2022-09-15T01:31:52.122Z,16.17
2022-09-15T01:32:53.829Z,16.18
2022-09-15T01:33:55.570Z,16.17
2022-09-15T01:34:57.296Z,16.15
2022-09-15T01:35:59.053Z,16.16
2022-09-15T01:37:00.753Z,16.16
2022-09-15T01:38:02.502Z,16.15
2022-09-15T01:39:04.256Z,16.15
2022-09-15T01:40:06.035Z,16.14
2022-09-15T01:41:07.695Z,16.14
2022-09-15T01:42:09.430Z,16.14
2022-09-15T01:43:11.167Z,16.13
2022-09-15T01:44:12.924Z,16.14
2022-09-15T01:45:14.641Z,16.13
2022-09-15T01:46:16.490Z,16.13
2022-09-15T01:47:18.092Z,16.13
2022-09-15T01:48:19.839Z,16.12
2022-09-15T01:49:21.590Z,16.12
2022-09-15T01:50:23.172Z,16.11
2022-09-15T01:51:24.882Z,16.11
2022-09-15T01:52:26.618Z,16.11
2022-09-15T01:53:28.346Z,16.11
2022-09-15T01:54:30.091Z,16.11
2022-09-15T01:55:31.812Z,16.11
2022-09-15T01:56:33.556Z,16.11
2022-09-15T01:57:35.287Z,16.11
2022-09-15T01:58:37.039Z,16.11
2022-09-15T01:59:38.761Z,16.11
2022-09-15T02:00:40.539Z,16.12
2022-09-15T02:01:42.338Z,16.12
2022-09-15T02:02:43.981Z,16.12
2022-09-15T02:03:45.753Z,16.12
2022-09-15T02:04:47.490Z,16.12
2022-09-15T02:05:49.184Z,16.13
2022-09-15T02:06:50.932Z,16.12
2022-09-15T02:07:52.709Z,16.13
2022-09-15T02:08:54.407Z,16.13
2022-09-15T02:09:56.112Z,16.13
2022-09-15T02:10:57.858Z,16.13
2022-09-15T02:11:59.575Z,16.13
2022-09-15T02:13:01.659Z,16.12
2022-09-15T02:14:03.053Z,16.12
2022-09-15T02:15:04.770Z,16.12
2022-09-15T02:16:06.588Z,16.11
2022-09-15T02:17:08.243Z,16.11
2022-09-15T02:18:09.980Z,16.1
2022-09-15T02:19:11.737Z,16.09
2022-09-15T02:20:13.454Z,16.09
2022-09-15T02:21:20.177Z,16.08
2022-09-15T02:22:16.926Z,16.08
2022-09-15T02:23:18.647Z,16.08
2022-09-15T02:24:20.404Z,16.07
2022-09-15T02:25:22.120Z,16.06
2022-09-15T02:26:23.861Z,16.06
2022-09-15T02:27:25.597Z,16.05
2022-09-15T02:28:28.353Z,16.04
2022-09-15T02:29:29.078Z,16.03
2022-09-15T02:30:30.819Z,16.02
2022-09-15T02:31:32.741Z,15.99
2022-09-15T02:32:34.297Z,15.98
2022-09-15T02:33:36.022Z,15.96
2022-09-15T02:34:37.773Z,15.95
2022-09-15T02:35:40.799Z,15.93
2022-09-15T02:36:44.318Z,15.92
2022-09-15T02:37:42.967Z,15.9
2022-09-15T02:38:44.759Z,15.88
2022-09-15T02:39:46.486Z,15.86
2022-09-15T02:40:48.160Z,15.85
2022-09-15T02:41:49.903Z,15.82
2022-09-15T02:42:51.630Z,15.82
2022-09-15T02:43:53.359Z,15.81
2022-09-15T02:44:55.110Z,15.8
2022-09-15T02:45:56.952Z,15.79
2022-09-15T02:46:58.574Z,15.78
2022-09-15T02:48:00.307Z,15.78
2022-09-15T02:49:02.038Z,15.78
2022-09-15T02:50:04.670Z,15.78
2022-09-15T02:51:05.536Z,15.79
2022-09-15T02:52:07.269Z,15.78
2022-09-15T02:53:08.966Z,15.78
2022-09-15T02:54:10.718Z,15.79
2022-09-15T02:55:12.461Z,15.79
2022-09-15T02:56:14.179Z,15.78
2022-09-15T02:57:15.932Z,15.79
2022-09-15T02:58:17.671Z,15.78
2022-09-15T02:59:19.430Z,15.78
2022-09-15T03:00:21.145Z,15.77
2022-09-15T03:01:22.881Z,15.76
2022-09-15T03:02:24.646Z,15.76
2022-09-15T03:03:26.338Z,15.75
2022-09-15T03:04:28.065Z,15.75
2022-09-15T03:05:29.859Z,15.73
2022-09-15T03:06:31.508Z,15.71
2022-09-15T03:07:33.272Z,15.7
2022-09-15T03:08:34.987Z,15.69
2022-09-15T03:09:36.731Z,15.67
2022-09-15T03:10:38.448Z,15.65
2022-09-15T03:11:40.194Z,15.65
2022-09-15T03:12:41.925Z,15.64
2022-09-15T03:13:43.670Z,15.62
2022-09-15T03:14:45.413Z,15.61
2022-09-15T03:15:47.136Z,15.6
2022-09-15T03:16:48.858Z,15.59
2022-09-15T03:17:50.597Z,15.57
2022-09-15T03:18:52.316Z,15.56
2022-09-15T03:19:54.085Z,15.54
2022-09-15T03:20:58.808Z,15.53
2022-09-15T03:21:58.584Z,15.51
2022-09-15T03:22:59.273Z,15.5
2022-09-15T03:24:00.998Z,15.48
2022-09-15T03:25:02.741Z,15.47
2022-09-15T03:26:04.472Z,15.45
2022-09-15T03:27:06.209Z,15.44
2022-09-15T03:28:07.932Z,15.42
2022-09-15T03:29:09.680Z,15.41
2022-09-15T03:30:11.410Z,15.4
2022-09-15T03:31:13.206Z,15.38
2022-09-15T03:32:14.866Z,15.37
2022-09-15T03:33:16.604Z,15.37
2022-09-15T03:34:18.368Z,15.36
2022-09-15T03:35:20.104Z,15.34
2022-09-15T03:36:21.845Z,15.3
2022-09-15T03:37:23.558Z,15.28
2022-09-15T03:38:25.279Z,15.27
2022-09-15T03:39:27.050Z,15.23
2022-09-15T03:40:28.787Z,15.22
2022-09-15T03:41:30.475Z,15.2
2022-09-15T03:42:32.214Z,15.18
2022-09-15T03:43:33.943Z,15.16
2022-09-15T03:44:35.704Z,15.14
2022-09-15T03:45:37.483Z,15.12
2022-09-15T03:46:39.148Z,15.1
2022-09-15T03:47:40.902Z,15.08
2022-09-15T03:48:44.483Z,15.06
2022-09-15T03:49:44.374Z,15.04
2022-09-15T03:50:46.105Z,15.02
2022-09-15T03:51:47.851Z,15.01
2022-09-15T03:52:49.558Z,15
2022-09-15T03:53:51.383Z,14.98
2022-09-15T03:54:53.027Z,14.96
2022-09-15T03:55:54.809Z,14.94
2022-09-15T03:56:56.495Z,14.91
2022-09-15T03:57:58.227Z,14.9
2022-09-15T03:59:10.601Z,14.88
2022-09-15T04:00:01.701Z,14.87
2022-09-15T04:01:08.526Z,14.86
2022-09-15T04:02:05.244Z,14.84
2022-09-15T04:03:06.904Z,14.82
2022-09-15T04:04:08.803Z,14.81
2022-09-15T04:05:10.953Z,14.77
2022-09-15T04:06:12.129Z,14.76
2022-09-15T04:07:13.847Z,14.74
2022-09-15T04:08:15.579Z,14.72
2022-09-15T04:09:17.319Z,14.7
2022-09-15T04:10:19.059Z,14.66
2022-09-15T04:11:20.789Z,14.63
2022-09-15T04:12:22.518Z,14.61
2022-09-15T04:13:28.412Z,14.59
2022-09-15T04:14:25.987Z,14.57
2022-09-15T04:15:27.729Z,14.56
2022-09-15T04:16:29.573Z,14.53
2022-09-15T04:17:31.187Z,14.51
2022-09-15T04:18:32.935Z,14.49
2022-09-15T04:19:34.667Z,14.47
2022-09-15T04:20:40.632Z,14.45
2022-09-15T04:21:38.137Z,14.44
2022-09-15T04:22:39.861Z,14.43
2022-09-15T04:23:41.633Z,14.42
2022-09-15T04:24:43.338Z,14.42
2022-09-15T04:25:45.076Z,14.4
2022-09-15T04:26:46.797Z,14.39
2022-09-15T04:27:48.552Z,14.38
2022-09-15T04:28:50.263Z,14.38
2022-09-15T04:29:52.003Z,14.37
2022-09-15T04:30:55.281Z,14.37
2022-09-15T04:31:55.498Z,14.37
2022-09-15T04:32:57.207Z,14.36
2022-09-15T04:33:58.936Z,14.36
2022-09-15T04:35:00.672Z,14.35
2022-09-15T04:36:07.436Z,14.33
2022-09-15T04:37:04.161Z,14.33
2022-09-15T04:38:05.877Z,14.33
2022-09-15T04:39:07.614Z,14.3
2022-09-15T04:40:09.448Z,14.3
2022-09-15T04:41:11.089Z,14.28
2022-09-15T04:42:12.848Z,14.26
2022-09-15T04:43:14.557Z,14.25
2022-09-15T04:44:16.287Z,14.21
2022-09-15T04:45:18.024Z,14.2
2022-09-15T04:46:19.847Z,14.17
2022-09-15T04:47:21.523Z,14.14
2022-09-15T04:48:23.253Z,14.11
2022-09-15T04:49:24.988Z,14.09
2022-09-15T04:50:26.707Z,14.04
2022-09-15T04:51:28.429Z,14.02
2022-09-15T04:52:30.201Z,13.97
2022-09-15T04:53:31.944Z,13.94
2022-09-15T04:54:33.631Z,13.9
2022-09-15T04:55:35.350Z,13.88
2022-09-15T04:56:37.110Z,13.84
2022-09-15T04:57:38.851Z,13.82
2022-09-15T04:58:40.578Z,13.8
2022-09-15T04:59:42.305Z,13.78
2022-09-15T05:00:44.100Z,13.75
2022-09-15T05:01:45.814Z,13.73
2022-09-15T05:02:47.756Z,13.72
2022-09-15T05:03:49.240Z,13.7
2022-09-15T05:04:50.989Z,13.69
2022-09-15T05:05:52.751Z,13.64
2022-09-15T05:06:54.463Z,13.64
2022-09-15T05:07:56.189Z,13.61
2022-09-15T05:08:57.930Z,13.59
2022-09-15T05:10:00.111Z,13.58
2022-09-15T05:11:01.401Z,13.55
2022-09-15T05:12:03.136Z,13.53
2022-09-15T05:13:04.868Z,13.51
2022-09-15T05:14:06.587Z,13.51
2022-09-15T05:15:08.311Z,13.49
2022-09-15T05:16:10.164Z,13.48
2022-09-15T05:17:11.783Z,13.48
2022-09-15T05:18:13.522Z,13.47
2022-09-15T05:19:15.259Z,13.47
2022-09-15T05:20:16.983Z,13.45
2022-09-15T05:21:18.725Z,13.44
2022-09-15T05:22:20.460Z,13.44
2022-09-15T05:23:22.193Z,13.44
2022-09-15T05:24:23.935Z,13.42
2022-09-15T05:25:25.668Z,13.42
2022-09-15T05:26:27.417Z,13.42
2022-09-15T05:27:29.127Z,13.41
2022-09-15T05:28:30.882Z,13.41
2022-09-15T05:29:32.607Z,13.4
2022-09-15T05:30:39.639Z,13.4
2022-09-15T05:31:36.163Z,13.38
2022-09-15T05:32:37.812Z,13.37
2022-09-15T05:33:39.548Z,13.36
2022-09-15T05:34:41.268Z,13.35
2022-09-15T05:35:43.025Z,13.33
2022-09-15T05:36:44.740Z,13.33
2022-09-15T05:37:46.468Z,13.33
2022-09-15T05:38:48.240Z,13.32
2022-09-15T05:39:50.001Z,13.31
2022-09-15T05:40:51.678Z,13.3
2022-09-15T05:41:53.402Z,13.3
2022-09-15T05:42:55.157Z,13.3
2022-09-15T05:43:56.934Z,13.29
2022-09-15T05:44:58.610Z,13.3
2022-09-15T05:46:00.343Z,13.29
2022-09-15T05:47:02.162Z,13.29
2022-09-15T05:48:03.815Z,13.29
2022-09-15T05:49:04.178Z,13.29
2022-09-15T05:50:07.280Z,13.28
2022-09-15T05:51:09.014Z,13.28
2022-09-15T05:52:13.778Z,13.28
2022-09-15T05:53:12.482Z,13.28
2022-09-15T05:54:14.237Z,13.28
2022-09-15T05:55:15.941Z,13.28
2022-09-15T05:56:17.697Z,13.29
2022-09-15T05:57:19.977Z,13.28
2022-09-15T05:58:21.158Z,13.29
2022-09-15T05:59:22.929Z,13.28
2022-09-15T06:00:24.614Z,13.27
2022-09-15T06:01:26.502Z,13.26
2022-09-15T06:02:28.262Z,13.26
2022-09-15T06:03:31.068Z,13.25
2022-09-15T06:04:31.630Z,13.25
2022-09-15T06:05:33.309Z,13.24
2022-09-15T06:06:35.041Z,13.24
2022-09-15T06:07:36.798Z,13.24
2022-09-15T06:08:40.519Z,13.22
2022-09-15T06:09:40.267Z,13.21
2022-09-15T06:10:41.975Z,13.21
2022-09-15T06:11:43.704Z,13.2
2022-09-15T06:12:45.448Z,13.18
2022-09-15T06:13:47.175Z,13.16
2022-09-15T06:14:48.923Z,13.15
2022-09-15T06:15:50.652Z,13.14
2022-09-15T06:16:52.373Z,13.11
2022-09-15T06:17:54.119Z,13.09
2022-09-15T06:18:55.841Z,13.07
2022-09-15T06:19:57.615Z,13.06
2022-09-15T06:20:59.316Z,13.04
2022-09-15T06:22:01.061Z,13.02
2022-09-15T06:23:02.793Z,13.01
2022-09-15T06:24:04.605Z,13
2022-09-15T06:25:06.351Z,12.98
2022-09-15T06:26:08.003Z,12.97
2022-09-15T06:27:09.725Z,12.96
2022-09-15T06:28:11.539Z,12.96
2022-09-15T06:29:13.209Z,12.94
2022-09-15T06:30:14.950Z,12.93
2022-09-15T06:31:16.732Z,12.92
2022-09-15T06:32:18.396Z,12.92
2022-09-15T06:33:20.122Z,12.91
2022-09-15T06:34:21.858Z,12.91
2022-09-15T06:35:23.647Z,12.89
2022-09-15T06:36:25.327Z,12.88
2022-09-15T06:37:27.284Z,12.88
2022-09-15T06:38:28.799Z,12.86
2022-09-15T06:39:30.541Z,12.86
2022-09-15T06:40:32.339Z,12.85
2022-09-15T06:41:58.495Z,12.85
2022-09-15T06:42:35.743Z,12.85
2022-09-15T06:43:37.472Z,12.85
2022-09-15T06:44:39.229Z,12.85
2022-09-15T06:45:40.982Z,12.87
2022-09-15T06:46:42.722Z,12.87
2022-09-15T06:47:44.425Z,12.88
2022-09-15T06:48:48.285Z,12.88
2022-09-15T06:49:47.895Z,12.88
2022-09-15T06:50:49.635Z,12.89
2022-09-15T06:51:51.352Z,12.89
2022-09-15T06:52:53.078Z,12.89
2022-09-15T06:53:54.810Z,12.9
2022-09-15T06:54:56.581Z,12.91
2022-09-15T06:55:58.288Z,12.91
2022-09-15T06:57:00.038Z,12.91
2022-09-15T06:58:01.762Z,12.92
2022-09-15T06:59:03.495Z,12.92
2022-09-15T07:00:05.283Z,12.92
2022-09-15T07:01:06.962Z,12.93
2022-09-15T07:02:08.837Z,12.93
2022-09-15T07:03:10.578Z,12.92
2022-09-15T07:04:12.156Z,12.94
2022-09-15T07:05:14.104Z,12.93
2022-09-15T07:06:15.644Z,12.94
2022-09-15T07:07:17.363Z,12.95
2022-09-15T07:08:19.088Z,12.95
2022-09-15T07:09:20.823Z,12.96
2022-09-15T07:10:22.555Z,12.97
2022-09-15T07:11:24.303Z,12.98
2022-09-15T07:12:26.017Z,12.99
2022-09-15T07:13:27.759Z,13
2022-09-15T07:14:29.504Z,13.02
2022-09-15T07:15:31.247Z,13.04
2022-09-15T07:16:33.088Z,13.05
2022-09-15T07:17:34.694Z,13.06
2022-09-15T07:18:39.769Z,13.08
2022-09-15T07:19:38.199Z,13.09
2022-09-15T07:20:39.893Z,13.08
2022-09-15T07:21:41.639Z,13.08
2022-09-15T07:22:43.367Z,13.09
2022-09-15T07:23:45.185Z,13.08
2022-09-15T07:24:46.851Z,13.07
2022-09-15T07:25:48.564Z,13.07
2022-09-15T07:26:50.314Z,13.07
2022-09-15T07:27:52.043Z,13.07
2022-09-15T07:28:53.769Z,13.06
2022-09-15T07:29:55.521Z,13.06
2022-09-15T07:30:57.242Z,13.06
2022-09-15T07:31:59.096Z,13.07
2022-09-15T07:33:00.715Z,13.06
2022-09-15T07:34:02.467Z,13.06
2022-09-15T07:35:04.186Z,13.07
2022-09-15T07:36:05.937Z,13.07
2022-09-15T07:37:07.636Z,13.09
2022-09-15T07:38:09.385Z,13.11
2022-09-15T07:39:11.381Z,13.13
2022-09-15T07:40:12.977Z,13.14
2022-09-15T07:41:14.582Z,13.15
2022-09-15T07:42:16.309Z,13.15
2022-09-15T07:43:18.073Z,13.16
2022-09-15T07:44:19.785Z,13.17
2022-09-15T07:45:21.556Z,13.17
2022-09-15T07:46:25.240Z,13.18
2022-09-15T07:47:30.149Z,13.17
2022-09-15T07:48:31.868Z,13.17
2022-09-15T07:49:33.626Z,13.18
2022-09-15T07:50:35.327Z,13.18
2022-09-15T07:51:37.072Z,13.18
2022-09-15T07:52:38.814Z,13.18
2022-09-15T07:53:40.519Z,13.19
2022-09-15T07:54:42.262Z,13.2
2022-09-15T07:55:43.991Z,13.21
2022-09-15T07:56:45.743Z,13.21
2022-09-15T07:57:47.474Z,13.22
2022-09-15T07:58:49.202Z,13.22
2022-09-15T07:59:50.956Z,13.23
2022-09-15T08:00:52.718Z,13.23
2022-09-15T08:01:54.489Z,13.24
2022-09-15T08:02:56.160Z,13.24
2022-09-15T08:03:57.892Z,13.25
2022-09-15T08:05:03.994Z,13.26
2022-09-15T08:06:06.496Z,13.25
2022-09-15T08:07:08.241Z,13.25
2022-09-15T08:08:09.978Z,13.24
2022-09-15T08:09:11.715Z,13.24
2022-09-15T08:10:13.434Z,13.24
2022-09-15T08:11:18.318Z,13.24
2022-09-15T08:12:16.920Z,13.25
2022-09-15T08:13:18.640Z,13.25
2022-09-15T08:14:20.356Z,13.27
2022-09-15T08:15:22.381Z,13.27
2022-09-15T08:16:23.927Z,13.28
2022-09-15T08:17:25.581Z,13.27
2022-09-15T08:18:27.314Z,13.26
2022-09-15T08:19:29.037Z,13.27
2022-09-15T08:20:30.776Z,13.28
2022-09-15T08:21:32.527Z,13.3
2022-09-15T08:22:33.576Z,13.31
2022-09-15T08:23:33.616Z,13.32
2022-09-15T08:24:35.353Z,13.34
2022-09-15T08:25:37.080Z,13.34
2022-09-15T08:26:38.822Z,13.35
2022-09-15T08:27:40.546Z,13.37
2022-09-15T08:28:42.489Z,13.39
2022-09-15T08:29:44.089Z,13.41
2022-09-15T08:30:45.772Z,13.43
2022-09-15T08:31:47.580Z,13.46
2022-09-15T08:32:49.245Z,13.46
2022-09-15T08:33:50.958Z,13.47
2022-09-15T08:34:52.715Z,13.47
2022-09-15T08:35:54.509Z,13.49
2022-09-15T08:36:56.156Z,13.51
2022-09-15T08:37:57.904Z,13.53
2022-09-15T08:38:59.640Z,13.54
2022-09-15T08:40:01.427Z,13.56
2022-09-15T08:41:08.103Z,13.56
2022-09-15T08:42:04.835Z,13.58
2022-09-15T08:43:06.569Z,13.6
2022-09-15T08:44:08.328Z,13.61
2022-09-15T08:45:10.050Z,13.63
2022-09-15T08:46:11.838Z,13.63
2022-09-15T08:47:13.522Z,13.64
2022-09-15T08:48:15.249Z,13.66
2022-09-15T08:49:27.008Z,13.7
2022-09-15T08:50:18.757Z,13.72
2022-09-15T08:51:20.464Z,13.76
2022-09-15T08:52:22.179Z,13.78
2022-09-15T08:53:23.918Z,13.8
2022-09-15T08:54:25.661Z,13.81
2022-09-15T08:55:27.391Z,13.81
2022-09-15T08:56:29.116Z,13.83
2022-09-15T08:57:30.848Z,13.81
2022-09-15T08:58:32.584Z,13.84
2022-09-15T08:59:34.329Z,13.84
2022-09-15T09:00:36.112Z,13.9
2022-09-15T09:01:37.861Z,13.94
2022-09-15T09:02:44.518Z,14
2022-09-15T09:03:46.111Z,14.08
2022-09-15T09:04:47.821Z,14.15
2022-09-15T09:05:49.568Z,14.2
2022-09-15T09:06:51.295Z,14.26
2022-09-15T09:07:53.036Z,14.34
2022-09-15T09:08:54.804Z,14.39
2022-09-15T09:09:56.516Z,14.43
2022-09-15T09:10:58.220Z,14.47
2022-09-15T09:11:59.968Z,14.52
2022-09-15T09:13:01.695Z,14.57
2022-09-15T09:14:03.421Z,14.6
2022-09-15T09:15:05.172Z,14.66
2022-09-15T09:16:06.989Z,14.7
2022-09-15T09:17:08.631Z,14.7
2022-09-15T09:18:10.354Z,14.72
2022-09-15T09:19:12.093Z,14.67
2022-09-15T09:20:13.831Z,14.67
2022-09-15T09:21:15.573Z,14.64
2022-09-15T09:22:17.301Z,14.6
2022-09-15T09:23:19.089Z,14.55
2022-09-15T09:24:20.824Z,14.51
2022-09-15T09:25:27.587Z,14.48
2022-09-15T09:26:24.247Z,14.46
2022-09-15T09:27:25.966Z,14.45
2022-09-15T09:28:27.697Z,14.44
2022-09-15T09:29:29.438Z,14.4
2022-09-15T09:30:31.179Z,14.38
2022-09-15T09:31:32.924Z,14.38
2022-09-15T09:32:34.657Z,14.35
2022-09-15T09:33:38.553Z,14.33
2022-09-15T09:34:38.114Z,14.32
2022-09-15T09:35:39.847Z,14.31
2022-09-15T09:36:41.602Z,14.32
2022-09-15T09:37:43.308Z,14.31
2022-09-15T09:38:45.043Z,14.29
2022-09-15T09:39:46.924Z,14.27
2022-09-15T09:40:48.535Z,14.27
2022-09-15T09:41:50.266Z,14.27
2022-09-15T09:42:52.008Z,14.27
2022-09-15T09:43:53.729Z,14.28
2022-09-15T09:44:55.458Z,14.31
2022-09-15T09:45:57.215Z,14.34
2022-09-15T09:46:58.947Z,14.44
2022-09-15T09:48:01.765Z,14.52
2022-09-15T09:49:02.397Z,14.56
2022-09-15T09:50:04.144Z,14.61
2022-09-15T09:51:05.873Z,14.59
2022-09-15T09:52:07.618Z,14.57
2022-09-15T09:53:09.328Z,14.56
2022-09-15T09:54:11.071Z,14.58
2022-09-15T09:55:12.786Z,14.59
2022-09-15T09:56:14.541Z,14.61
2022-09-15T09:57:16.275Z,14.64
2022-09-15T09:58:17.998Z,14.67
2022-09-15T09:59:19.757Z,14.73
2022-09-15T10:00:21.486Z,14.78
2022-09-15T10:01:23.275Z,14.85
2022-09-15T10:02:25.004Z,14.89
2022-09-15T10:03:32.059Z,14.91
2022-09-15T10:04:28.477Z,14.96
2022-09-15T10:05:30.158Z,15.02
2022-09-15T10:06:31.875Z,15.12
2022-09-15T10:07:33.619Z,15.14
2022-09-15T10:08:35.354Z,15.18
2022-09-15T10:09:37.097Z,15.22
2022-09-15T10:10:38.868Z,15.28
2022-09-15T10:11:40.585Z,15.3
2022-09-15T10:12:42.311Z,15.32
2022-09-15T10:13:44.032Z,15.31
2022-09-15T10:14:45.747Z,15.32
2022-09-15T10:15:47.485Z,15.29
2022-09-15T10:16:49.336Z,15.28
2022-09-15T10:17:50.951Z,15.25
2022-09-15T10:18:54.575Z,15.26
2022-09-15T10:19:54.418Z,15.26
2022-09-15T10:20:56.156Z,15.25
2022-09-15T10:21:57.891Z,15.25
2022-09-15T10:22:59.642Z,15.26
2022-09-15T10:24:01.370Z,15.29
2022-09-15T10:25:03.110Z,15.38
2022-09-15T10:26:04.839Z,15.43
2022-09-15T10:27:06.558Z,15.47
2022-09-15T10:28:08.294Z,15.52
2022-09-15T10:29:10.062Z,15.56
2022-09-15T10:30:11.862Z,15.61
2022-09-15T10:31:13.593Z,15.59
2022-09-15T10:32:15.357Z,15.62
2022-09-15T10:33:17.002Z,15.6
2022-09-15T10:34:18.731Z,15.59
2022-09-15T10:35:20.445Z,15.59
2022-09-15T10:36:22.180Z,15.56
2022-09-15T10:37:23.909Z,15.56
2022-09-15T10:38:25.649Z,15.57
2022-09-15T10:39:27.411Z,15.6
2022-09-15T10:40:29.210Z,15.6
2022-09-15T10:41:30.861Z,15.63
2022-09-15T10:42:32.589Z,15.64
2022-09-15T10:43:34.317Z,15.64
2022-09-15T10:44:36.346Z,15.61
2022-09-15T10:45:37.902Z,15.61
2022-09-15T10:46:39.609Z,15.63
2022-09-15T10:47:41.265Z,15.62
2022-09-15T10:48:43.073Z,15.63
2022-09-15T10:49:44.736Z,15.61
2022-09-15T10:50:46.486Z,15.59
2022-09-15T10:51:48.198Z,15.59
2022-09-15T10:52:49.935Z,15.58
2022-09-15T10:53:55.588Z,15.57
2022-09-15T10:54:53.456Z,15.58
2022-09-15T10:55:55.140Z,15.55
2022-09-15T10:56:56.861Z,15.56
2022-09-15T10:57:58.604Z,15.57
2022-09-15T10:59:00.354Z,15.57
2022-09-15T11:00:02.106Z,15.59
2022-09-15T11:01:03.916Z,15.59
2022-09-15T11:02:05.627Z,15.6
2022-09-15T11:03:07.296Z,15.59
2022-09-15T11:04:09.054Z,15.59
2022-09-15T11:05:10.789Z,15.59
2022-09-15T11:06:12.591Z,15.62
2022-09-15T11:07:14.226Z,15.62
2022-09-15T11:08:15.954Z,15.65
2022-09-15T11:09:17.698Z,15.65
2022-09-15T11:10:19.685Z,15.67
2022-09-15T11:11:21.161Z,15.69
2022-09-15T11:12:27.101Z,15.72
2022-09-15T11:13:24.607Z,15.74
2022-09-15T11:14:26.357Z,15.78
2022-09-15T11:15:28.103Z,15.82
2022-09-15T11:16:29.907Z,15.89
2022-09-15T11:17:31.551Z,15.96
2022-09-15T11:18:33.270Z,16.02
2022-09-15T11:19:35.033Z,16.05
2022-09-15T11:20:36.744Z,16.08
2022-09-15T11:21:38.485Z,16.13
2022-09-15T11:22:40.275Z,16.16
2022-09-15T11:23:42.407Z,16.19
2022-09-15T11:24:43.690Z,16.23
2022-09-15T11:25:45.416Z,16.27
2022-09-15T11:26:47.304Z,16.29
2022-09-15T11:27:48.930Z,16.33
2022-09-15T11:28:50.766Z,16.38
2022-09-15T11:29:52.474Z,16.42
2022-09-15T11:30:54.287Z,16.45
2022-09-15T11:31:55.983Z,16.51
2022-09-15T11:32:58.196Z,16.62
2022-09-15T11:33:59.347Z,16.69
2022-09-15T11:35:01.064Z,16.74
2022-09-15T11:36:03.793Z,16.78
2022-09-15T11:37:04.538Z,16.88
2022-09-15T11:38:09.963Z,16.93
2022-09-15T11:39:07.965Z,16.98
2022-09-15T11:40:09.858Z,17.01
2022-09-15T11:41:11.434Z,17.04
2022-09-15T11:42:13.173Z,17.05
2022-09-15T11:43:14.919Z,17.05
2022-09-15T11:44:17.028Z,17.05
2022-09-15T11:45:18.387Z,17.08
2022-09-15T11:46:21.190Z,17.09
2022-09-15T11:47:21.863Z,17.1
2022-09-15T11:48:23.591Z,17.1
2022-09-15T11:49:25.325Z,17.13
2022-09-15T11:50:28.316Z,17.13
2022-09-15T11:51:30.424Z,17.16
2022-09-15T11:52:30.650Z,17.23
2022-09-15T11:53:32.406Z,17.28
2022-09-15T11:54:34.118Z,17.35
2022-09-15T11:55:35.862Z,17.39
2022-09-15T11:56:37.591Z,17.42
2022-09-15T11:57:39.362Z,17.45
2022-09-15T11:58:41.042Z,17.48
2022-09-15T11:59:42.800Z,17.5
2022-09-15T12:00:44.577Z,17.52
2022-09-15T12:01:46.290Z,17.54
2022-09-15T12:02:48.105Z,17.54
2022-09-15T12:03:49.761Z,17.55
2022-09-15T12:04:51.530Z,17.6
2022-09-15T12:05:53.260Z,17.63
2022-09-15T12:06:55.061Z,17.64
2022-09-15T12:07:56.713Z,17.65
2022-09-15T12:08:58.437Z,17.67
2022-09-15T12:10:00.175Z,17.68
2022-09-15T12:11:06.921Z,17.7
2022-09-15T12:12:03.608Z,17.71
2022-09-15T12:13:05.363Z,17.71
2022-09-15T12:14:07.069Z,17.7
2022-09-15T12:15:08.803Z,17.69
2022-09-15T12:16:10.631Z,17.69
2022-09-15T12:17:12.307Z,17.69
2022-09-15T12:18:34.475Z,17.67
2022-09-15T12:19:15.737Z,17.67
2022-09-15T12:20:17.482Z,17.64
2022-09-15T12:21:19.231Z,17.62
2022-09-15T12:22:20.949Z,17.6
2022-09-15T12:23:22.676Z,17.56
2022-09-15T12:24:24.405Z,17.53
2022-09-15T12:25:26.166Z,17.49
2022-09-15T12:26:27.192Z,17.49
2022-09-15T12:27:29.628Z,17.47
2022-09-15T12:29:34.990Z,17.46
2022-09-15T12:30:34.844Z,17.46
2022-09-15T12:31:36.620Z,17.46
2022-09-15T12:32:38.284Z,17.47
2022-09-15T12:33:40.024Z,17.49
2022-09-15T12:34:41.758Z,17.54
2022-09-15T12:35:43.500Z,17.61
2022-09-15T12:36:45.246Z,17.73
2022-09-15T12:37:46.956Z,17.84
2022-09-15T12:38:48.699Z,17.93
2022-09-15T12:39:50.502Z,18.07
2022-09-15T12:40:52.148Z,18.13
2022-09-15T12:41:53.893Z,18.2
2022-09-15T12:42:55.630Z,18.23
2022-09-15T12:43:57.358Z,18.25
2022-09-15T12:44:59.145Z,18.28
2022-09-15T12:46:04.986Z,18.26
2022-09-15T12:47:02.555Z,18.26
2022-09-15T12:48:20.892Z,18.23
2022-09-15T12:50:10.130Z,18.19
2022-09-15T12:51:11.930Z,18.15
2022-09-15T12:52:13.669Z,18.12
2022-09-15T12:53:15.403Z,18.08
2022-09-15T12:54:17.156Z,18.04
2022-09-15T12:55:18.872Z,17.98
2022-09-15T12:56:20.596Z,17.91
2022-09-15T12:57:22.348Z,17.88
2022-09-15T12:58:24.077Z,17.85
2022-09-15T12:59:25.804Z,17.81
2022-09-15T13:00:27.599Z,17.77
2022-09-15T13:01:29.330Z,17.74
2022-09-15T13:02:31.241Z,17.69
2022-09-15T13:03:32.831Z,17.66
2022-09-15T13:04:34.470Z,17.61
2022-09-15T13:05:37.247Z,17.59
2022-09-15T13:06:37.967Z,17.58
2022-09-15T13:07:39.696Z,17.55
2022-09-15T13:08:41.441Z,17.56
2022-09-15T13:09:43.173Z,17.57
2022-09-15T13:10:44.891Z,17.57
2022-09-15T13:11:46.671Z,17.57
2022-09-15T13:12:48.371Z,17.57
2022-09-15T13:13:50.108Z,17.57
2022-09-15T13:14:51.819Z,17.58
2022-09-15T13:15:52.661Z,17.57
2022-09-15T13:16:55.280Z,17.58
2022-09-15T13:17:57.020Z,17.58
2022-09-15T13:18:58.755Z,17.58
2022-09-15T13:20:00.476Z,17.57
2022-09-15T13:21:05.234Z,17.57